Time;durP1;ratioP1;P1;durP2;ratioP2;P2;SDS_P1;SDS_P2;PMS_P1;PMS_P2;Temp;Humidity;BMP_temperature;BMP_pressure;BME280_temperature;BME280_humidity;BME280_pressure;Samples;Min_cycle;Max_cycle;Signal;HPM_P1;HPM_P2
2022/07/02 00:02:12;;;;;;;9.90;4.70;;;;;19.90;97551.20;;;;110593;1251;42387;-69
2022/07/02 00:04:46;;;;;;;9.20;4.90;;;;;19.90;97549.80;;;;110429;1253;41261;-69
2022/07/02 00:07:17;;;;;;;8.80;4.70;;;;;19.90;97553.20;;;;110570;1252;41953;-69
2022/07/02 00:09:47;;;;;;;9.50;4.70;;;;;19.92;97551.60;;;;110256;1254;41610;-68
2022/07/02 00:12:17;;;;;;;16.00;6.90;;;;;19.96;97551.00;;;;110683;1252;41342;-69
2022/07/02 00:14:51;;;;;;;24.30;9.40;;;;;19.90;97550.60;;;;110595;1253;41142;-68
2022/07/02 00:17:21;;;;;;;21.70;9.60;;;;;19.80;97551.80;;;;110580;1252;41523;-69
2022/07/02 00:19:53;;;;;;;21.90;8.80;;;;;19.70;97549.00;;;;110579;1253;41223;-69
2022/07/02 00:22:23;;;;;;;17.80;8.10;;;;;19.70;97549.20;;;;110561;1253;41257;-68
2022/07/02 00:24:53;;;;;;;16.30;7.20;;;;;19.70;97548.40;;;;110482;1253;41152;-69
2022/07/02 00:27:27;;;;;;;16.80;7.20;;;;;19.70;97550.80;;;;110567;1252;41721;-69
2022/07/02 00:29:59;;;;;;;15.30;6.30;;;;;19.70;97548.00;;;;110555;1253;41273;-68
2022/07/02 00:32:31;;;;;;;11.10;5.10;;;;;19.70;97547.60;;;;110473;1253;41206;-68
2022/07/02 00:35:11;;;;;;;11.70;5.40;;;;;19.70;97550.40;;;;110472;1255;41269;-69
2022/07/02 00:37:42;;;;;;;12.00;6.00;;;;;19.70;97545.40;;;;110572;1253;41133;-68
2022/07/02 00:40:11;;;;;;;10.70;5.20;;;;;19.70;97540.60;;;;110477;1253;41920;-68
2022/07/02 00:42:41;;;;;;;9.30;4.20;;;;;19.70;97538.20;;;;110515;1254;41220;-70
2022/07/02 00:45:11;;;;;;;;;;;;;19.70;97538.00;;;;110589;1252;41140;-68
2022/07/02 00:47:43;;;;;;;8.70;3.70;;;;;19.64;97539.20;;;;110607;1253;41149;-69
2022/07/02 00:50:14;;;;;;;8.00;3.70;;;;;19.60;97541.80;;;;110594;1253;41258;-71
2022/07/02 00:52:44;;;;;;;11.60;3.90;;;;;19.60;97542.00;;;;110505;1253;41216;-69
2022/07/02 00:55:14;;;;;;;9.60;3.80;;;;;19.60;97541.60;;;;110352;1253;41136;-69
2022/07/02 00:57:48;;;;;;;9.80;3.90;;;;;19.60;97537.60;;;;110374;1254;41267;-68
2022/07/02 01:00:35;;;;;;;9.80;5.00;;;;;19.60;97535.60;;;;110563;1253;41724;-66
2022/07/02 01:03:06;;;;;;;11.30;5.80;;;;;19.60;97532.20;;;;110410;1255;41254;-69
2022/07/02 01:05:36;;;;;;;;;;;;;19.60;97534.40;;;;110613;1253;41144;-70
2022/07/02 01:10:55;;;;;;;10.90;4.90;;;;;19.64;97535.20;;;;110521;1255;42422;-67
2022/07/02 01:13:25;;;;;;;;;;;;;19.70;97530.40;;;;110515;1255;41841;-69
2022/07/02 01:15:55;;;;;;;9.70;4.60;;;;;19.70;97529.80;;;;110535;1253;41270;-69
2022/07/02 01:18:25;;;;;;;9.40;4.30;;;;;19.70;97526.60;;;;110508;1253;41159;-69
2022/07/02 01:20:56;;;;;;;9.00;4.10;;;;;19.78;97526.60;;;;110510;1253;41273;-67
2022/07/02 01:23:27;;;;;;;9.60;4.60;;;;;19.80;97521.80;;;;110524;1253;41488;-69
2022/07/02 01:25:59;;;;;;;10.80;5.00;;;;;19.80;97523.60;;;;110460;1253;41260;-68
2022/07/02 01:28:30;;;;;;;9.70;5.00;;;;;19.70;97525.60;;;;110534;1253;41161;-68
2022/07/02 01:31:00;;;;;;;11.20;5.00;;;;;19.60;97525.80;;;;110443;1253;41276;-68
2022/07/02 01:33:31;;;;;;;9.00;5.00;;;;;19.58;97520.20;;;;110511;1253;41144;-70
2022/07/02 01:36:02;;;;;;;9.80;4.30;;;;;19.60;97522.00;;;;110586;1253;41263;-71
2022/07/02 01:38:33;;;;;;;8.70;4.00;;;;;19.60;97521.60;;;;110466;1253;41158;-71
2022/07/02 01:43:53;;;;;;;7.80;3.60;;;;;19.60;97525.00;;;;110659;1253;41146;-68
2022/07/02 01:46:24;;;;;;;9.20;4.20;;;;;19.60;97529.00;;;;110672;1253;42076;-68
2022/07/02 01:48:54;;;;;;;8.20;4.10;;;;;19.64;97531.60;;;;110613;1253;41161;-69
2022/07/02 01:51:23;;;;;;;9.30;4.50;;;;;19.70;97527.20;;;;110527;1253;41149;-68
2022/07/02 01:53:55;;;;;;;9.50;4.50;;;;;19.70;97527.60;;;;110573;1253;41616;-68
2022/07/02 01:56:26;;;;;;;7.90;3.70;;;;;19.70;97527.40;;;;110526;1253;41136;-69
2022/07/02 01:58:56;;;;;;;13.30;5.80;;;;;19.70;97527.40;;;;110318;1256;41149;-68
2022/07/02 02:01:29;;;;;;;10.80;5.10;;;;;19.70;97529.60;;;;110489;1253;41149;-68
2022/07/02 02:04:02;;;;;;;10.60;4.90;;;;;19.62;97530.20;;;;110553;1252;41373;-68
2022/07/02 02:06:32;;;;;;;10.70;4.40;;;;;19.60;97529.80;;;;110490;1253;41260;-67
2022/07/02 02:09:04;;;;;;;10.00;4.80;;;;;19.60;97527.60;;;;110491;1253;41718;-69
2022/07/02 02:11:35;;;;;;;10.10;4.40;;;;;19.60;97528.80;;;;110611;1253;41194;-69
2022/07/02 02:14:06;;;;;;;12.30;4.80;;;;;19.60;97529.60;;;;110541;1253;41813;-69
2022/07/02 02:16:38;;;;;;;10.90;5.20;;;;;19.60;97527.20;;;;110537;1252;41126;-68
2022/07/02 02:19:09;;;;;;;12.80;5.80;;;;;19.60;97530.60;;;;110570;1253;41330;-68
2022/07/02 02:21:39;;;;;;;9.60;4.70;;;;;19.60;97533.80;;;;110553;1253;42177;-68
2022/07/02 02:24:10;;;;;;;10.20;5.00;;;;;19.60;97535.80;;;;110583;1253;41151;-68
2022/07/02 02:26:40;;;;;;;11.80;5.20;;;;;19.60;97532.20;;;;110530;1252;41735;-68
2022/07/02 02:29:10;;;;;;;;;;;;;19.60;97534.60;;;;110588;1253;41440;-68
2022/07/02 02:31:40;;;;;;;11.90;5.20;;;;;19.60;97535.40;;;;110566;1253;41894;-68
2022/07/02 02:34:11;;;;;;;13.10;5.70;;;;;19.60;97535.00;;;;110519;1253;41612;-68
2022/07/02 02:36:40;;;;;;;13.50;5.60;;;;;19.58;97537.80;;;;110480;1253;41679;-67
2022/07/02 02:39:12;;;;;;;12.10;5.00;;;;;19.40;97542.80;;;;110578;1253;42200;-68
2022/07/02 02:41:42;;;;;;;11.70;5.50;;;;;19.38;97539.80;;;;110476;1253;41535;-66
2022/07/02 02:44:12;;;;;;;;;;;;;19.30;97540.00;;;;110412;1255;41837;-67
2022/07/02 02:46:43;;;;;;;14.90;5.70;;;;;19.30;97542.80;;;;110495;1253;41158;-67
2022/07/02 02:49:14;;;;;;;12.30;5.90;;;;;19.30;97544.20;;;;110275;1255;41356;-69
2022/07/02 02:51:44;;;;;;;9.00;4.50;;;;;19.30;97549.20;;;;110466;1253;41617;-68
2022/07/02 02:54:15;;;;;;;9.90;4.40;;;;;19.30;97553.00;;;;110477;1253;41684;-69
2022/07/02 02:56:45;;;;;;;8.90;4.40;;;;;19.40;97559.00;;;;110551;1253;41788;-67
2022/07/02 02:59:15;;;;;;;9.30;4.60;;;;;19.40;97564.00;;;;110312;1254;41911;-68
2022/07/02 03:01:46;;;;;;;9.20;4.60;;;;;19.50;97565.40;;;;110397;1254;41211;-67
2022/07/02 03:04:17;;;;;;;10.00;4.60;;;;;19.60;97569.00;;;;110551;1253;41792;-68
2022/07/02 03:06:47;;;;;;;8.10;4.20;;;;;19.62;97578.40;;;;110576;1252;41620;-69
2022/07/02 03:09:18;;;;;;;8.50;4.00;;;;;19.70;97578.60;;;;110562;1252;42206;-68
2022/07/02 03:11:48;;;;;;;;;;;;;19.80;97573.40;;;;110516;1253;41606;-68
2022/07/02 03:14:20;;;;;;;10.90;5.60;;;;;19.80;97578.40;;;;110537;1253;41403;-69
2022/07/02 03:16:50;;;;;;;9.90;5.60;;;;;19.90;97581.80;;;;110571;1253;41159;-69
2022/07/02 03:19:19;;;;;;;10.80;4.80;;;;;19.90;97582.20;;;;110419;1253;42058;-68
2022/07/02 03:21:49;;;;;;;12.00;5.40;;;;;19.90;97582.80;;;;110643;1253;41250;-68
2022/07/02 03:24:20;;;;;;;9.10;4.10;;;;;19.90;97582.20;;;;110355;1255;42043;-69
2022/07/02 03:26:51;;;;;;;8.40;3.70;;;;;19.98;97584.60;;;;110367;1253;41412;-68
2022/07/02 03:29:25;;;;;;;8.70;4.20;;;;;20.00;97582.20;;;;110445;1256;41171;-68
2022/07/02 03:31:55;;;;;;;8.50;4.00;;;;;20.10;97586.40;;;;110571;1252;41724;-69
2022/07/02 03:34:25;;;;;;;11.30;4.80;;;;;20.20;97583.20;;;;110454;1255;41276;-70
2022/07/02 03:36:55;;;;;;;9.50;5.30;;;;;20.30;97583.80;;;;110622;1253;41146;-68
2022/07/02 03:39:26;;;;;;;11.70;5.20;;;;;20.40;97582.00;;;;110610;1253;41267;-68
2022/07/02 03:41:56;;;;;;;8.00;4.00;;;;;20.50;97585.00;;;;110618;1253;41193;-69
2022/07/02 03:44:26;;;;;;;10.40;5.20;;;;;20.60;97588.20;;;;110390;1253;42092;-68
2022/07/02 03:46:56;;;;;;;12.80;5.20;;;;;20.78;97583.20;;;;110530;1252;41487;-67
2022/07/02 03:49:26;;;;;;;9.40;4.90;;;;;20.90;97589.60;;;;110487;1254;41634;-68
2022/07/02 03:51:56;;;;;;;10.20;5.40;;;;;21.10;97591.20;;;;110379;1255;41893;-69
2022/07/02 03:54:25;;;;;;;10.30;5.20;;;;;21.20;97593.40;;;;110315;1255;41986;-68
2022/07/02 03:56:55;;;;;;;10.60;4.90;;;;;21.32;97594.20;;;;110382;1254;41146;-68
2022/07/02 03:59:25;;;;;;;10.50;4.30;;;;;21.50;97597.20;;;;110484;1253;41149;-69
2022/07/02 04:01:55;;;;;;;10.70;5.10;;;;;21.60;97600.40;;;;110308;1255;41362;-69
2022/07/02 04:04:26;;;;;;;11.40;5.60;;;;;21.70;97604.00;;;;110497;1253;41267;-68
2022/07/02 04:06:56;;;;;;;11.40;5.30;;;;;21.90;97603.60;;;;110367;1255;42132;-69
2022/07/02 04:09:25;;;;;;;11.10;5.40;;;;;21.94;97602.80;;;;110564;1251;41163;-69
2022/07/02 04:11:55;;;;;;;9.90;4.70;;;;;22.10;97600.20;;;;110537;1252;42168;-69
2022/07/02 04:14:24;;;;;;;10.80;5.30;;;;;22.20;97602.60;;;;110676;1252;41149;-69
2022/07/02 04:16:54;;;;;;;9.70;4.90;;;;;22.30;97601.80;;;;110477;1253;41641;-68
2022/07/02 04:19:24;;;;;;;7.70;3.80;;;;;22.50;97601.00;;;;110700;1252;41180;-69
2022/07/02 04:21:54;;;;;;;11.90;4.80;;;;;22.70;97606.20;;;;110469;1255;41140;-69
2022/07/02 04:24:23;;;;;;;8.70;4.40;;;;;22.86;97608.40;;;;110577;1253;42337;-69
2022/07/02 04:26:54;;;;;;;8.30;4.30;;;;;23.00;97613.00;;;;110302;1254;41151;-69
2022/07/02 04:29:23;;;;;;;10.10;4.60;;;;;23.10;97617.00;;;;110572;1253;41267;-68
2022/07/02 04:31:53;;;;;;;10.40;5.20;;;;;23.20;97625.00;;;;110351;1254;42378;-69
2022/07/02 04:34:22;;;;;;;11.20;5.20;;;;;23.20;97632.60;;;;110642;1253;41272;-70
2022/07/02 04:36:52;;;;;;;11.00;4.80;;;;;23.10;97637.00;;;;110519;1251;41389;-69
2022/07/02 04:39:23;;;;;;;10.40;4.90;;;;;23.08;97648.20;;;;110410;1253;41207;-67
2022/07/02 04:41:53;;;;;;;15.30;5.90;;;;;22.98;97655.80;;;;110456;1253;41645;-68
2022/07/02 04:44:22;;;;;;;10.20;5.00;;;;;22.90;97659.20;;;;110499;1253;42123;-67
2022/07/02 04:46:52;;;;;;;9.90;5.30;;;;;22.90;97664.20;;;;110502;1253;41853;-66
2022/07/02 04:49:22;;;;;;;10.30;4.90;;;;;23.00;97661.00;;;;110490;1253;41455;-68
2022/07/02 04:51:52;;;;;;;11.00;4.80;;;;;23.06;97652.20;;;;110557;1253;41152;-69
2022/07/02 04:54:21;;;;;;;8.80;4.40;;;;;23.20;97660.80;;;;110776;1253;41163;-69
2022/07/02 04:56:51;;;;;;;9.00;4.60;;;;;23.30;97669.60;;;;110637;1253;41265;-68
2022/07/02 04:59:21;;;;;;;8.20;4.20;;;;;23.38;97674.20;;;;110495;1253;41987;-66
2022/07/02 05:02:00;;;;;;;9.50;4.80;;;;;23.40;97670.40;;;;110397;1253;41313;-69
2022/07/02 05:04:31;;;;;;;12.20;5.50;;;;;23.42;97672.00;;;;110490;1253;41632;-66
2022/07/02 05:07:01;;;;;;;10.00;4.70;;;;;23.50;97670.80;;;;110479;1253;41162;-68
2022/07/02 05:09:31;;;;;;;9.10;4.40;;;;;23.50;97671.40;;;;110489;1253;42181;-68
2022/07/02 05:12:03;;;;;;;9.30;4.70;;;;;23.60;97667.20;;;;110318;1255;41690;-68
2022/07/02 05:14:35;;;;;;;9.50;4.70;;;;;23.70;97670.80;;;;110488;1253;41541;-68
2022/07/02 05:17:05;;;;;;;8.80;4.50;;;;;23.80;97674.00;;;;110455;1253;41450;-68
2022/07/02 05:19:35;;;;;;;9.20;4.00;;;;;23.80;97670.20;;;;110293;1255;42870;-70
2022/07/02 05:22:06;;;;;;;9.30;4.20;;;;;23.90;97676.60;;;;110361;1253;41185;-67
2022/07/02 05:24:37;;;;;;;9.80;4.20;;;;;23.90;97687.80;;;;110669;1253;41037;-68
2022/07/02 05:27:11;;;;;;;8.20;3.90;;;;;23.94;97687.80;;;;110488;1252;41210;-68
2022/07/02 05:29:56;;;;;;;9.00;4.40;;;;;24.00;97696.00;;;;110593;1253;41148;-69
2022/07/02 05:32:31;;;;;;;;;;;;;24.00;97703.40;;;;110557;1252;41917;-68
2022/07/02 05:35:01;;;;;;;8.00;3.70;;;;;24.00;97702.20;;;;110509;1253;41934;-67
2022/07/02 05:37:35;;;;;;;8.10;3.80;;;;;24.00;97704.80;;;;110418;1253;41270;-68
2022/07/02 05:40:07;;;;;;;9.30;4.00;;;;;24.00;97717.40;;;;110394;1254;41131;-68
2022/07/02 05:42:46;;;;;;;7.90;3.50;;;;;24.08;97716.80;;;;110476;1253;41151;-67
2022/07/02 05:45:15;;;;;;;9.40;5.20;;;;;24.10;97721.80;;;;110472;1254;41173;-68
2022/07/02 05:47:45;;;;;;;11.90;4.90;;;;;23.82;97728.20;;;;110454;1254;41813;-71
2022/07/02 05:50:14;;;;;;;10.70;5.70;;;;;23.80;97734.00;;;;110455;1254;41158;-67
2022/07/02 05:52:44;;;;;;;16.20;4.70;;;;;23.60;97736.80;;;;110511;1253;41224;-67
2022/07/02 05:55:18;;;;;;;11.80;5.30;;;;;23.60;97731.60;;;;110462;1253;41588;-68
2022/07/02 05:57:48;;;;;;;10.10;4.70;;;;;23.70;97734.40;;;;110373;1254;41150;-68
2022/07/02 06:00:20;;;;;;;8.40;4.20;;;;;23.74;97739.80;;;;110334;1254;41261;-67
2022/07/02 06:02:49;;;;;;;11.50;4.60;;;;;23.80;97742.20;;;;110466;1253;41131;-68
2022/07/02 06:08:07;;;;;;;9.40;4.70;;;;;23.98;97753.40;;;;110428;1254;41267;-68
2022/07/02 06:10:36;;;;;;;9.10;4.60;;;;;24.00;97757.40;;;;110484;1253;42541;-68
2022/07/02 06:13:06;;;;;;;8.30;3.70;;;;;24.10;97753.00;;;;110483;1253;41649;-68
2022/07/02 06:15:35;;;;;;;8.30;3.80;;;;;24.20;97756.40;;;;110489;1253;41763;-68
2022/07/02 06:18:05;;;;;;;7.60;3.70;;;;;24.30;97753.40;;;;110454;1254;42535;-68
2022/07/02 06:20:35;;;;;;;11.40;4.10;;;;;24.40;97751.80;;;;110470;1253;41291;-67
2022/07/02 06:23:05;;;;;;;10.90;4.60;;;;;24.50;97755.40;;;;110461;1253;41699;-68
2022/07/02 06:25:34;;;;;;;10.80;5.20;;;;;24.60;97756.60;;;;110489;1253;41264;-67
2022/07/02 06:28:04;;;;;;;11.00;5.30;;;;;24.70;97756.60;;;;110498;1254;41255;-69
2022/07/02 06:30:34;;;;;;;9.40;4.70;;;;;24.70;97755.00;;;;110530;1253;41379;-68
2022/07/02 06:33:07;;;;;;;9.60;4.60;;;;;24.70;97753.40;;;;110497;1253;41162;-66
2022/07/02 06:35:42;;;;;;;9.30;4.60;;;;;24.90;97753.20;;;;110584;1256;41729;-67
2022/07/02 06:38:13;;;;;;;11.60;5.20;;;;;25.10;97742.40;;;;110258;1254;41251;-69
2022/07/02 06:40:42;;;;;;;8.20;4.40;;;;;25.48;97729.20;;;;110576;1253;41795;-68
2022/07/02 06:43:11;;;;;;;10.90;4.60;;;;;26.00;97740.60;;;;110386;1254;41269;-69
2022/07/02 06:45:40;;;;;;;9.20;4.80;;;;;26.20;97742.40;;;;110723;1253;41308;-69
2022/07/02 06:48:09;;;;;;;8.20;4.50;;;;;26.28;97731.00;;;;110671;1253;40927;-70
2022/07/02 06:50:38;;;;;;;9.30;4.10;;;;;26.30;97731.00;;;;110687;1253;41152;-69
2022/07/02 06:53:07;;;;;;;8.70;4.60;;;;;26.68;97728.80;;;;110560;1253;41155;-69
2022/07/02 06:55:36;;;;;;;9.80;4.60;;;;;27.90;97728.00;;;;110651;1256;41264;-70
2022/07/02 06:58:05;;;;;;;9.90;4.60;;;;;29.34;97734.00;;;;110581;1254;41280;-69
2022/07/02 07:00:34;;;;;;;9.40;4.40;;;;;30.44;97737.40;;;;110662;1253;41151;-68
2022/07/02 07:03:03;;;;;;;9.20;4.60;;;;;31.60;97739.40;;;;110667;1253;41821;-68
2022/07/02 07:05:33;;;;;;;9.00;4.60;;;;;32.62;97736.00;;;;110648;1253;41272;-69
2022/07/02 07:08:02;;;;;;;9.50;4.20;;;;;33.24;97731.80;;;;110606;1254;40842;-68
2022/07/02 07:10:31;;;;;;;8.30;3.60;;;;;33.60;97731.40;;;;110687;1253;42427;-69
2022/07/02 07:13:00;;;;;;;8.00;3.90;;;;;33.90;97732.60;;;;110668;1254;41263;-69
2022/07/02 07:15:30;;;;;;;8.70;4.00;;;;;33.84;97733.20;;;;110569;1253;42034;-68
2022/07/02 07:17:59;;;;;;;9.90;4.20;;;;;33.80;97733.80;;;;110610;1254;41140;-69
2022/07/02 07:20:29;;;;;;;10.20;4.10;;;;;33.60;97735.20;;;;110681;1254;42018;-70
2022/07/02 07:22:59;;;;;;;;;;;;;33.50;97731.80;;;;110654;1254;42044;-68
2022/07/02 07:25:28;;;;;;;9.10;4.30;;;;;33.40;97734.00;;;;110649;1254;42369;-69
2022/07/02 07:27:57;;;;;;;8.00;3.90;;;;;32.90;97738.80;;;;110365;1253;347883;-68
2022/07/02 07:30:26;;;;;;;8.60;4.40;;;;;32.76;97742.40;;;;110680;1254;41503;-68
2022/07/02 07:32:56;;;;;;;17.50;4.70;;;;;32.50;97754.60;;;;110497;1256;41848;-68
2022/07/02 07:35:25;;;;;;;9.60;4.40;;;;;32.50;97753.60;;;;110658;1253;41188;-68
2022/07/02 07:38:02;;;;;;;10.10;4.70;;;;;32.46;97754.80;;;;110693;1253;41379;-69
2022/07/02 07:40:31;;;;;;;8.60;4.30;;;;;32.50;97753.20;;;;110595;1254;41145;-67
2022/07/02 07:43:12;;;;;;;8.70;4.20;;;;;32.60;97753.60;;;;110496;1254;42150;-69
2022/07/02 07:45:49;;;;;;;9.90;4.60;;;;;32.50;97755.40;;;;110761;1253;41518;-71
2022/07/02 07:48:24;;;;;;;9.10;3.80;;;;;32.62;97756.20;;;;110664;1253;41666;-69
2022/07/02 07:51:01;;;;;;;9.50;3.90;;;;;32.60;97756.80;;;;110707;1253;41911;-69
2022/07/02 07:53:30;;;;;;;10.40;4.20;;;;;32.70;97757.20;;;;110600;1256;41314;-69
2022/07/02 07:55:59;;;;;;;8.40;4.20;;;;;32.70;97748.60;;;;110506;1255;41884;-70
2022/07/02 07:58:29;;;;;;;8.70;4.00;;;;;32.64;97751.80;;;;110549;1254;41159;-70
2022/07/02 08:00:58;;;;;;;;;;;;;32.68;97748.60;;;;110520;1254;42009;-69
2022/07/02 08:03:27;;;;;;;7.70;3.90;;;;;32.80;97748.00;;;;110611;1254;41268;-69
2022/07/02 08:05:57;;;;;;;10.00;4.00;;;;;32.90;97749.00;;;;110622;1255;41147;-68
2022/07/02 08:08:26;;;;;;;8.50;3.80;;;;;32.90;97744.80;;;;110594;1256;43237;-69
2022/07/02 08:10:55;;;;;;;8.70;3.90;;;;;32.96;97737.20;;;;110534;1254;41415;-70
2022/07/02 08:13:24;;;;;;;9.30;3.60;;;;;33.00;97738.20;;;;110533;1255;41262;-68
2022/07/02 08:15:53;;;;;;;10.90;3.80;;;;;33.10;97740.60;;;;110380;1254;42394;-69
2022/07/02 08:18:23;;;;;;;9.60;3.90;;;;;33.20;97738.60;;;;110527;1256;41164;-69
2022/07/02 08:20:52;;;;;;;7.90;3.80;;;;;33.20;97736.00;;;;110482;1256;41215;-69
2022/07/02 08:23:21;;;;;;;8.40;4.00;;;;;33.20;97739.00;;;;110585;1253;41141;-69
2022/07/02 08:25:56;;;;;;;7.20;3.10;;;;;33.40;97733.60;;;;110477;1256;41609;-69
2022/07/02 08:28:25;;;;;;;8.00;3.60;;;;;33.60;97732.20;;;;110426;1256;41153;-69
2022/07/02 08:30:54;;;;;;;8.90;3.30;;;;;33.90;97728.20;;;;110421;1256;41144;-69
2022/07/02 08:33:23;;;;;;;8.20;3.80;;;;;34.18;97726.20;;;;110445;1256;41140;-69
2022/07/02 08:35:52;;;;;;;8.40;3.90;;;;;34.30;97722.20;;;;110438;1256;41166;-69
2022/07/02 08:38:21;;;;;;;9.00;3.50;;;;;34.14;97713.20;;;;110525;1256;41224;-68
2022/07/02 08:40:50;;;;;;;8.30;3.10;;;;;34.00;97712.80;;;;110173;1257;41510;-68
2022/07/02 08:43:23;;;;;;;7.00;3.40;;;;;34.00;97711.80;;;;110340;1256;41166;-70
2022/07/02 08:45:52;;;;;;;7.70;3.30;;;;;34.00;97711.60;;;;110496;1256;40748;-68
2022/07/02 08:48:22;;;;;;;7.80;3.20;;;;;34.00;97705.40;;;;110208;1256;41198;-68
2022/07/02 08:50:51;;;;;;;;;;;;;34.20;97701.60;;;;110415;1255;41169;-68
2022/07/02 08:53:20;;;;;;;8.90;3.40;;;;;34.30;97699.60;;;;110516;1253;41651;-69
2022/07/02 08:55:50;;;;;;;17.10;7.80;;;;;34.40;97699.00;;;;110675;1254;41138;-69
2022/07/02 08:58:20;;;;;;;12.20;6.00;;;;;34.44;97702.00;;;;110402;1256;41154;-69
2022/07/02 09:00:49;;;;;;;7.50;3.30;;;;;34.60;97698.60;;;;110690;1254;41676;-70
2022/07/02 09:03:20;;;;;;;7.80;3.50;;;;;34.80;97694.20;;;;110602;1253;41538;-69
2022/07/02 09:05:51;;;;;;;8.20;3.90;;;;;35.10;97692.60;;;;110579;1256;41156;-71
2022/07/02 09:08:22;;;;;;;7.10;3.00;;;;;35.18;97689.20;;;;110598;1256;41133;-69
2022/07/02 09:10:52;;;;;;;7.70;3.20;;;;;35.20;97680.60;;;;110667;1253;41164;-69
2022/07/02 09:13:23;;;;;;;10.30;3.30;;;;;35.50;97675.20;;;;110576;1254;41203;-70
2022/07/02 09:15:56;;;;;;;7.00;2.80;;;;;35.68;97673.40;;;;110363;1255;41330;-69
2022/07/02 09:18:26;;;;;;;8.80;3.30;;;;;35.90;97672.60;;;;110482;1255;42450;-70
2022/07/02 09:20:55;;;;;;;7.30;3.20;;;;;35.30;97670.60;;;;110572;1256;41151;-71
2022/07/02 09:23:24;;;;;;;10.60;3.70;;;;;35.94;97669.60;;;;110623;1255;41145;-70
2022/07/02 09:25:53;;;;;;;10.70;3.70;;;;;36.36;97663.20;;;;110561;1256;41977;-70
2022/07/02 09:28:22;;;;;;;9.60;3.70;;;;;36.94;97663.00;;;;110621;1255;41266;-69
2022/07/02 09:30:51;;;;;;;7.60;3.30;;;;;37.56;97651.40;;;;110642;1255;41267;-69
2022/07/02 09:33:37;;;;;;;6.80;3.10;;;;;38.00;97645.40;;;;110460;1256;41269;-68
2022/07/02 09:36:11;;;;;;;6.60;2.70;;;;;38.56;97650.60;;;;110518;1254;41590;-69
2022/07/02 09:39:00;;;;;;;7.00;3.30;;;;;39.30;97651.40;;;;110443;1254;41171;-69
2022/07/02 09:41:30;;;;;;;;;;;;;39.82;97652.40;;;;110628;1256;41179;-70
2022/07/02 09:43:59;;;;;;;7.10;2.60;;;;;39.96;97653.20;;;;110526;1255;41770;-70
2022/07/02 09:46:29;;;;;;;7.20;3.20;;;;;39.94;97654.60;;;;110619;1254;41716;-71
2022/07/02 09:49:07;;;;;;;8.20;2.70;;;;;40.00;97649.40;;;;110626;1255;41267;-70
2022/07/02 09:51:49;;;;;;;7.30;2.80;;;;;39.78;97642.60;;;;110585;1254;42570;-69
2022/07/02 09:54:24;;;;;;;5.50;2.10;;;;;39.72;97646.40;;;;110589;1256;42177;-69
2022/07/02 09:56:54;;;;;;;6.30;2.70;;;;;39.98;97647.00;;;;110512;1256;41164;-69
2022/07/02 09:59:24;;;;;;;6.70;2.80;;;;;40.20;97650.80;;;;110618;1255;41731;-70
2022/07/02 10:01:55;;;;;;;5.70;2.30;;;;;40.40;97652.80;;;;110518;1254;41566;-70
2022/07/02 10:04:31;;;;;;;9.10;2.80;;;;;40.80;97649.00;;;;110281;1256;41198;-68
2022/07/02 10:07:01;;;;;;;7.10;2.60;;;;;38.98;97643.60;;;;110367;1254;41182;-68
2022/07/02 10:09:31;;;;;;;9.30;2.40;;;;;38.88;97644.00;;;;110346;1256;41573;-70
2022/07/02 10:12:02;;;;;;;6.90;2.50;;;;;39.38;97641.00;;;;110484;1257;41198;-70
2022/07/02 10:14:34;;;;;;;6.40;2.40;;;;;39.98;97629.40;;;;110482;1254;41572;-69
2022/07/02 10:17:04;;;;;;;7.30;2.70;;;;;40.64;97628.80;;;;110649;1254;41149;-68
2022/07/02 10:19:33;;;;;;;7.60;2.70;;;;;41.00;97614.60;;;;110716;1254;41178;-69
2022/07/02 10:22:03;;;;;;;5.60;2.30;;;;;41.10;97615.00;;;;110486;1256;41632;-69
2022/07/02 10:24:32;;;;;;;5.90;2.30;;;;;41.26;97617.40;;;;110247;1256;41576;-68
2022/07/02 10:27:02;;;;;;;5.50;2.40;;;;;41.30;97619.20;;;;110299;1256;41166;-68
2022/07/02 10:29:33;;;;;;;6.30;2.70;;;;;41.20;97622.20;;;;110477;1254;41206;-68
2022/07/02 10:32:49;;;;;;;6.30;2.40;;;;;40.92;97623.40;;;;110580;1254;41144;-69
2022/07/02 10:35:18;;;;;;;6.10;2.60;;;;;40.80;97623.00;;;;110025;1262;40750;-69
2022/07/02 10:37:47;;;;;;;5.20;2.20;;;;;40.70;97626.00;;;;110390;1254;41858;-69
2022/07/02 10:40:18;;;;;;;7.60;2.20;;;;;40.70;97624.60;;;;110673;1254;41268;-70
2022/07/02 10:42:49;;;;;;;6.60;2.60;;;;;40.60;97626.40;;;;110626;1254;41814;-69
2022/07/02 10:45:20;;;;;;;6.00;2.30;;;;;40.04;97618.40;;;;110570;1254;41159;-69
2022/07/02 10:48:05;;;;;;;4.90;2.00;;;;;39.90;97615.40;;;;110739;1256;41190;-69
2022/07/02 10:50:38;;;;;;;7.90;2.50;;;;;39.80;97613.00;;;;110630;1254;41161;-70
2022/07/02 10:53:18;;;;;;;5.40;2.20;;;;;39.52;97607.40;;;;110587;1256;41370;-69
2022/07/02 10:56:04;;;;;;;5.20;2.00;;;;;39.70;97605.40;;;;110606;1255;43181;-70
2022/07/02 10:58:38;;;;;;;4.80;2.00;;;;;40.10;97606.20;;;;110623;1255;41164;-69
2022/07/02 11:01:11;;;;;;;7.00;2.20;;;;;40.56;97598.00;;;;110616;1255;42090;-69
2022/07/02 11:04:10;;;;;;;6.30;2.00;;;;;40.68;97599.60;;;;110353;1256;41643;-69
2022/07/02 11:06:39;;;;;;;8.20;2.60;;;;;41.36;97595.60;;;;109805;1262;41500;-68
2022/07/02 11:09:08;;;;;;;4.90;2.20;;;;;42.06;97596.60;;;;109980;1261;41203;-69
2022/07/02 11:11:40;;;;;;;6.20;2.30;;;;;42.70;97594.80;;;;109978;1262;41173;-70
2022/07/02 11:14:17;;;;;;;8.20;3.20;;;;;43.52;97597.40;;;;109898;1263;41167;-71
2022/07/02 11:16:48;;;;;;;7.70;3.20;;;;;44.00;97594.80;;;;109935;1262;41640;-70
2022/07/02 11:19:24;;;;;;;8.20;3.10;;;;;43.74;97595.20;;;;109964;1261;41037;-71
2022/07/02 11:21:58;;;;;;;8.50;3.30;;;;;44.20;97594.20;;;;109710;1263;42866;-71
2022/07/02 11:24:30;;;;;;;9.60;3.80;;;;;43.04;97595.80;;;;109714;1264;42529;-70
2022/07/02 11:27:05;;;;;;;10.40;3.70;;;;;42.00;97603.20;;;;109923;1263;41166;-70
2022/07/02 11:29:39;;;;;;;9.70;4.20;;;;;41.62;97598.40;;;;109700;1263;41172;-68
2022/07/02 11:32:08;;;;;;;8.60;3.50;;;;;40.60;97600.60;;;;109692;1264;42418;-69
2022/07/02 11:34:37;;;;;;;7.70;3.70;;;;;39.70;97606.40;;;;109559;1264;41178;-69
2022/07/02 11:37:06;;;;;;;9.60;3.80;;;;;40.00;97598.40;;;;109897;1262;42503;-69
2022/07/02 11:39:35;;;;;;;7.70;3.40;;;;;40.26;97592.80;;;;109896;1261;41475;-69
2022/07/02 11:42:04;;;;;;;7.30;3.10;;;;;40.06;97600.60;;;;109817;1262;41221;-69
2022/07/02 11:44:33;;;;;;;9.30;3.80;;;;;39.80;97601.40;;;;110331;1257;41244;-69
2022/07/02 11:47:02;;;;;;;12.20;3.20;;;;;40.06;97599.20;;;;110603;1254;41594;-70
2022/07/02 11:49:32;;;;;;;;;;;;;40.20;97604.00;;;;110500;1255;40741;-70
2022/07/02 11:52:01;;;;;;;8.30;3.60;;;;;40.78;97595.80;;;;110579;1254;41740;-68
2022/07/02 11:54:30;;;;;;;7.20;3.00;;;;;40.52;97600.40;;;;110474;1255;41310;-69
2022/07/02 11:56:59;;;;;;;9.80;3.80;;;;;40.72;97590.40;;;;110601;1254;41197;-70
2022/07/02 11:59:28;;;;;;;8.50;3.40;;;;;41.28;97581.20;;;;110622;1254;41155;-70
2022/07/02 12:01:56;;;;;;;7.50;3.20;;;;;41.12;97575.00;;;;110502;1254;41497;-70
2022/07/02 12:04:31;;;;;;;7.50;3.20;;;;;41.32;97575.60;;;;110534;1255;41032;-70
2022/07/02 12:07:01;;;;;;;9.50;3.70;;;;;40.90;97568.40;;;;110556;1257;41197;-69
2022/07/02 12:09:30;;;;;;;8.50;3.60;;;;;40.84;97560.20;;;;110366;1257;41262;-70
2022/07/02 12:12:04;;;;;;;8.90;3.60;;;;;38.92;97555.20;;;;110663;1254;41179;-68
2022/07/02 12:14:33;;;;;;;10.50;3.80;;;;;37.86;97542.00;;;;110641;1256;41945;-68
2022/07/02 12:17:05;;;;;;;9.30;3.90;;;;;37.10;97546.80;;;;110608;1255;42382;-71
2022/07/02 12:19:35;;;;;;;7.50;3.40;;;;;36.50;97543.80;;;;110689;1254;41193;-69
2022/07/02 12:22:05;;;;;;;13.90;4.40;;;;;36.40;97545.20;;;;110632;1255;41137;-69
2022/07/02 12:24:36;;;;;;;10.20;3.80;;;;;36.02;97539.40;;;;110608;1254;41209;-70
2022/07/02 12:27:07;;;;;;;9.40;4.20;;;;;36.12;97543.20;;;;110615;1254;41246;-70
2022/07/02 12:30:04;;;;;;;8.70;3.70;;;;;36.10;97539.60;;;;110399;1255;41183;-70
2022/07/02 12:32:38;;;;;;;9.50;3.90;;;;;36.00;97538.20;;;;110630;1254;41160;-69
2022/07/02 12:35:10;;;;;;;9.10;3.10;;;;;36.00;97542.00;;;;110633;1254;41263;-70
2022/07/02 12:37:44;;;;;;;9.00;3.30;;;;;35.72;97534.20;;;;110638;1254;41260;-69